createdAt,value
2022-09-20T00:01:54.742Z,0.73
2022-09-20T00:04:41.762Z,1.10
2022-09-20T00:07:28.757Z,1.05
2022-09-20T00:10:15.673Z,1.17
2022-09-20T00:12:56.110Z,0.98
2022-09-20T00:15:43.721Z,0.85
2022-09-20T00:18:30.712Z,1.40
2022-09-20T00:21:18.715Z,1.80
2022-09-20T00:23:59.737Z,0.93
2022-09-20T00:26:46.676Z,0.75
2022-09-20T00:29:33.697Z,0.80
2022-09-20T00:32:20.660Z,0.80
2022-09-20T00:35:19.678Z,0.63
2022-09-20T00:37:59.851Z,0.90
2022-09-20T00:40:50.671Z,0.60
2022-09-20T00:43:56.696Z,0.80
2022-09-20T00:46:51.656Z,0.88
2022-09-20T00:52:22.644Z,0.80
2022-09-20T00:55:10.661Z,1.95
2022-09-20T00:57:51.201Z,1.10
2022-09-20T01:00:37.657Z,0.75
2022-09-20T01:03:23.004Z,0.98
2022-09-20T01:06:09.659Z,0.60
2022-09-20T01:08:59.653Z,0.75
2022-09-20T01:11:41.798Z,0.60
2022-09-20T01:14:30.633Z,0.60
2022-09-20T01:17:19.670Z,0.73
2022-09-20T01:20:14.668Z,0.70
2022-09-20T01:26:26.640Z,0.77
2022-09-20T01:29:53.590Z,0.68
2022-09-20T01:33:05.605Z,1.00
2022-09-20T01:35:49.638Z,0.50
2022-09-20T01:38:51.612Z,0.60
2022-09-20T01:42:12.633Z,0.60
2022-09-20T01:45:03.471Z,0.50
2022-09-20T01:48:21.586Z,0.40
2022-09-20T01:51:20.221Z,0.50
2022-09-20T01:54:12.547Z,0.50
2022-09-20T01:57:34.606Z,0.55
2022-09-20T02:00:24.561Z,0.52
2022-09-20T02:03:39.552Z,0.90
2022-09-20T02:07:03.709Z,0.47
2022-09-20T02:10:24.612Z,0.60
2022-09-20T02:13:24.582Z,0.80
2022-09-20T02:16:42.158Z,0.70
2022-09-20T02:19:45.523Z,0.45
2022-09-20T02:22:51.548Z,0.50
2022-09-20T02:25:40.660Z,0.77
2022-09-20T02:28:30.529Z,0.65
2022-09-20T02:31:43.770Z,0.20
2022-09-20T02:35:07.529Z,0.50
2022-09-20T02:38:14.527Z,0.70
2022-09-20T02:41:16.518Z,0.40
2022-09-20T02:44:28.536Z,0.47
2022-09-20T02:47:44.527Z,0.70
2022-09-20T02:50:30.124Z,0.55
2022-09-20T02:53:54.522Z,1.33
2022-09-20T02:56:55.630Z,0.90
2022-09-20T02:59:53.493Z,1.55
2022-09-20T03:03:17.497Z,0.57
2022-09-20T03:26:16.429Z,0.95
2022-09-20T03:29:11.498Z,1.27
2022-09-20T03:34:50.439Z,1.27
2022-09-20T03:37:30.721Z,1.15
2022-09-20T03:40:24.495Z,1.42
2022-09-20T03:43:30.554Z,1.30
2022-09-20T03:46:24.470Z,1.40
2022-09-20T03:49:34.467Z,1.25
2022-09-20T03:52:52.537Z,1.30
2022-09-20T03:55:39.450Z,1.17
2022-09-20T03:58:38.531Z,2.58
2022-09-20T04:01:43.462Z,1.40
2022-09-20T04:04:54.443Z,1.33
2022-09-20T04:08:06.453Z,1.40
2022-09-20T04:11:08.413Z,1.50
2022-09-20T04:14:03.185Z,1.63
2022-09-20T04:17:14.416Z,1.63
2022-09-20T04:20:13.620Z,1.70
2022-09-20T04:23:04.436Z,2.17
2022-09-20T04:25:54.547Z,1.60
2022-09-20T04:28:48.421Z,1.58
2022-09-20T04:32:17.470Z,1.52
2022-09-20T04:35:36.332Z,2.00
2022-09-20T04:38:26.385Z,1.95
2022-09-20T04:41:23.413Z,1.52
2022-09-20T04:44:29.356Z,2.08
2022-09-20T04:47:47.485Z,1.63
2022-09-20T04:50:37.381Z,2.13
2022-09-20T04:54:11.473Z,1.70
2022-09-20T04:57:18.326Z,2.00
2022-09-20T05:00:22.370Z,1.75
2022-09-20T05:03:10.638Z,1.40
2022-09-20T05:06:22.373Z,1.83
2022-09-20T05:09:28.289Z,1.65
2022-09-20T05:12:29.353Z,1.52
2022-09-20T05:15:35.315Z,1.40
2022-09-20T05:18:44.324Z,1.70
2022-09-20T05:21:56.288Z,2.15
2022-09-20T05:24:52.862Z,1.70
2022-09-20T05:27:50.314Z,2.05
2022-09-20T05:31:01.336Z,4.20
2022-09-20T05:34:08.964Z,2.03
2022-09-20T05:36:55.327Z,2.08
2022-09-20T05:39:48.425Z,1.70
2022-09-20T05:42:49.326Z,1.48
2022-09-20T05:45:50.042Z,1.88
2022-09-20T05:48:50.321Z,1.00
2022-09-20T05:51:53.026Z,1.30
2022-09-20T05:54:52.277Z,1.38
2022-09-20T05:58:01.384Z,1.85
2022-09-20T06:01:03.342Z,1.25
2022-09-20T06:03:55.717Z,1.50
2022-09-20T06:07:02.285Z,0.85
2022-09-20T06:10:14.245Z,1.00
2022-09-20T06:13:05.740Z,1.42
2022-09-20T06:16:04.222Z,1.73
2022-09-20T06:19:17.246Z,1.38
2022-09-20T06:22:08.242Z,1.40
2022-09-20T06:25:02.257Z,2.60
2022-09-20T06:27:59.401Z,2.63
2022-09-20T06:30:48.250Z,1.30
2022-09-20T06:33:37.234Z,1.48
2022-09-20T06:36:51.243Z,2.00
2022-09-20T06:40:32.206Z,1.75
2022-09-20T06:43:21.242Z,2.17
2022-09-20T06:46:01.667Z,1.10
2022-09-20T06:48:48.219Z,1.40
2022-09-20T06:51:33.880Z,4.28
2022-09-20T06:54:27.259Z,1.20
2022-09-20T06:57:07.709Z,1.52
2022-09-20T06:59:54.246Z,1.45
2022-09-20T07:02:34.652Z,1.60
2022-09-20T07:05:28.194Z,2.13
2022-09-20T07:08:15.224Z,1.27
2022-09-20T07:10:55.283Z,1.20
2022-09-20T07:13:43.221Z,1.67
2022-09-20T07:16:23.417Z,1.95
2022-09-20T07:19:03.189Z,1.42
2022-09-20T07:21:50.146Z,1.33
2022-09-20T07:24:44.152Z,1.25
2022-09-20T07:27:31.192Z,1.20
2022-09-20T07:30:12.649Z,1.17
2022-09-20T07:32:59.187Z,1.50
2022-09-20T07:35:39.262Z,0.85
2022-09-20T07:38:26.176Z,1.00
2022-09-20T07:41:08.299Z,1.00
2022-09-20T07:43:55.148Z,0.82
2022-09-20T07:46:46.177Z,2.10
2022-09-20T07:49:37.156Z,1.42
2022-09-20T07:52:17.246Z,2.15
2022-09-20T07:55:04.130Z,1.20
2022-09-20T07:57:45.705Z,1.30
2022-09-20T08:00:32.166Z,1.25
2022-09-20T08:03:12.347Z,1.70
2022-09-20T08:06:06.124Z,0.60
2022-09-20T08:08:47.389Z,3.72
2022-09-20T08:11:36.090Z,0.90
2022-09-20T08:14:28.118Z,1.00
2022-09-20T08:17:11.379Z,1.90
2022-09-20T08:20:00.110Z,1.08
2022-09-20T08:23:06.338Z,0.95
2022-09-20T08:26:03.089Z,1.50
2022-09-20T08:28:51.128Z,0.85
2022-09-20T08:31:36.970Z,0.88
2022-09-20T08:34:25.176Z,0.70
2022-09-20T08:37:05.777Z,1.23
2022-09-20T08:39:59.624Z,0.70
2022-09-20T08:45:38.106Z,0.57
2022-09-20T08:48:23.221Z,0.82
2022-09-20T08:51:13.138Z,1.00
2022-09-20T08:54:03.085Z,1.20
2022-09-20T08:56:45.479Z,3.58
2022-09-20T08:59:36.083Z,0.88
2022-09-20T09:02:19.600Z,0.60
2022-09-20T09:05:06.094Z,0.87
2022-09-20T09:07:47.263Z,0.60
2022-09-20T09:10:34.179Z,1.98
2022-09-20T09:13:29.205Z,1.20
2022-09-20T09:16:25.848Z,0.95
2022-09-20T09:19:50.088Z,0.70
2022-09-20T09:22:50.071Z,0.80
2022-09-20T09:25:41.087Z,0.80
2022-09-20T09:28:29.061Z,0.90
2022-09-20T09:31:33.143Z,0.40
2022-09-20T09:34:32.224Z,0.50
2022-09-20T09:37:39.011Z,0.60
2022-09-20T09:40:25.257Z,0.40
2022-09-20T09:43:12.055Z,0.40
2022-09-20T09:45:52.229Z,0.50
2022-09-20T09:48:40.305Z,0.77
2022-09-20T09:51:30.020Z,0.30
2022-09-20T09:54:26.265Z,0.60
2022-09-20T09:57:37.150Z,0.90
2022-09-20T10:00:29.056Z,1.00
2022-09-20T10:03:39.091Z,0.45
2022-09-20T10:07:07.001Z,0.60
2022-09-20T10:10:31.043Z,0.60
2022-09-20T10:13:26.745Z,0.75
2022-09-20T10:16:19.010Z,0.43
2022-09-20T10:19:22.703Z,0.98
2022-09-20T10:22:21.611Z,0.63
2022-09-20T10:25:11.028Z,0.35
2022-09-20T10:27:51.105Z,0.52
2022-09-20T10:30:50.974Z,0.30
2022-09-20T10:33:38.224Z,0.40
2022-09-20T10:36:42.004Z,0.40
2022-09-20T10:39:47.984Z,0.52
2022-09-20T10:43:02.982Z,0.82
2022-09-20T10:46:32.767Z,0.50
2022-09-20T10:49:33.990Z,0.82
2022-09-20T10:52:41.063Z,0.50
2022-09-20T10:55:31.964Z,0.70
2022-09-20T10:58:40.102Z,1.00
2022-09-20T11:01:37.988Z,0.50
2022-09-20T11:04:38.989Z,1.48
2022-09-20T11:07:32.160Z,0.73
2022-09-20T11:10:31.966Z,0.93
2022-09-20T11:13:40.966Z,0.43
2022-09-20T11:16:32.000Z,1.20
2022-09-20T11:19:27.979Z,0.30
2022-09-20T11:22:31.028Z,0.40
2022-09-20T11:25:27.354Z,0.47
2022-09-20T11:28:26.945Z,0.88
2022-09-20T11:31:22.190Z,1.23
2022-09-20T11:34:21.965Z,0.70
2022-09-20T11:37:03.585Z,0.80
2022-09-20T11:40:08.970Z,0.70
2022-09-20T11:42:52.656Z,0.85
2022-09-20T11:45:41.977Z,0.47
2022-09-20T11:48:35.923Z,0.50
2022-09-20T11:51:52.890Z,0.50
2022-09-20T11:55:01.903Z,1.20
2022-09-20T11:57:42.052Z,0.70
2022-09-20T12:00:37.899Z,1.10
2022-09-20T12:04:14.230Z,0.40
2022-09-20T12:07:18.722Z,0.70
2022-09-20T12:10:15.900Z,0.60
2022-09-20T12:13:00.045Z,0.47
2022-09-20T12:15:48.923Z,0.55
2022-09-20T12:18:35.837Z,1.25
2022-09-20T12:21:26.846Z,0.80
2022-09-20T12:24:44.584Z,0.50
2022-09-20T12:27:32.867Z,0.60
2022-09-20T12:30:33.264Z,0.63
2022-09-20T12:33:27.879Z,0.65
2022-09-20T12:36:29.891Z,0.80
2022-09-20T12:39:11.104Z,0.50
2022-09-20T12:42:23.838Z,0.52
2022-09-20T12:45:17.790Z,0.65
2022-09-20T12:48:07.887Z,0.90
2022-09-20T12:51:46.635Z,0.57
2022-09-20T12:54:33.856Z,0.80
2022-09-20T12:57:39.858Z,0.73
2022-09-20T13:00:45.863Z,0.60
2022-09-20T13:03:49.982Z,0.70
2022-09-20T13:06:31.789Z,0.80
2022-09-20T13:09:13.975Z,2.70
2022-09-20T13:12:09.822Z,0.77
2022-09-20T13:14:50.475Z,0.45
2022-09-20T13:17:40.821Z,1.23
2022-09-20T13:20:25.436Z,1.45
2022-09-20T13:23:12.811Z,1.00
2022-09-20T13:26:11.828Z,1.30
2022-09-20T13:28:55.258Z,2.28
2022-09-20T13:31:44.825Z,2.35
2022-09-20T13:34:32.796Z,3.03
2022-09-20T13:37:32.344Z,0.98
2022-09-20T13:40:19.620Z,0.70
2022-09-20T13:43:23.248Z,0.98
2022-09-20T13:46:37.757Z,0.68
2022-09-20T13:49:20.955Z,1.02
2022-09-20T13:52:26.783Z,0.55
2022-09-20T13:55:13.750Z,0.70
2022-09-20T13:58:03.792Z,0.50
2022-09-20T14:00:44.123Z,0.60
2022-09-20T14:03:33.845Z,0.30
2022-09-20T14:06:21.813Z,0.50
2022-09-20T14:09:12.756Z,0.70
2022-09-20T14:11:53.972Z,1.20
2022-09-20T14:14:41.772Z,0.45
2022-09-20T14:17:24.925Z,1.38
2022-09-20T14:20:13.771Z,0.88
2022-09-20T14:23:00.717Z,0.80
2022-09-20T14:25:47.756Z,0.40
2022-09-20T14:28:34.730Z,0.60
2022-09-20T14:31:33.963Z,0.65
2022-09-20T14:34:26.739Z,0.50
2022-09-20T14:37:31.495Z,1.58
2022-09-20T14:43:38.800Z,0.50
2022-09-20T14:46:39.853Z,0.50
2022-09-20T14:49:32.741Z,0.43
2022-09-20T14:52:40.693Z,0.70
2022-09-20T14:55:37.458Z,0.80
2022-09-20T14:58:28.719Z,0.40
2022-09-20T15:01:32.709Z,0.80
2022-09-20T15:04:25.993Z,1.23
2022-09-20T15:07:16.687Z,0.80
2022-09-20T15:09:56.817Z,0.50
2022-09-20T15:27:38.486Z,0.50
2022-09-20T15:30:23.137Z,0.68
2022-09-20T15:33:09.458Z,0.50
2022-09-20T15:35:50.262Z,1.30
2022-09-20T15:38:37.465Z,0.55
2022-09-20T15:41:17.812Z,2.13
2022-09-20T15:44:04.449Z,1.23
2022-09-20T15:46:44.818Z,0.60
2022-09-20T15:49:31.472Z,0.80
2022-09-20T15:52:19.470Z,1.00
2022-09-20T15:55:00.307Z,0.90
2022-09-20T15:57:48.434Z,0.68
2022-09-20T16:00:35.439Z,0.70
2022-09-20T16:03:16.224Z,0.95
2022-09-20T16:06:12.457Z,0.60
2022-09-20T16:08:59.531Z,1.00
2022-09-20T16:11:39.412Z,1.08
2022-09-20T16:14:26.596Z,0.90
2022-09-20T16:17:06.420Z,1.48
2022-09-20T16:19:55.393Z,0.57
2022-09-20T16:22:42.423Z,1.23
2022-09-20T16:25:36.374Z,0.93
2022-09-20T16:28:16.800Z,1.02
2022-09-20T16:31:13.412Z,0.82
2022-09-20T16:34:00.378Z,1.27
2022-09-20T16:36:50.358Z,1.42
2022-09-20T16:39:31.145Z,1.95
2022-09-20T16:42:20.393Z,4.00
2022-09-20T16:45:00.780Z,4.13
2022-09-20T16:47:47.359Z,2.60
2022-09-20T16:50:34.364Z,2.63
2022-09-20T16:53:21.366Z,2.42
2022-09-20T16:56:08.370Z,1.88
2022-09-20T16:58:48.531Z,2.50
2022-09-20T17:01:36.344Z,1.73
2022-09-20T17:04:21.128Z,2.10
2022-09-20T17:07:08.346Z,1.92
2022-09-20T17:09:48.549Z,2.25
2022-09-20T17:12:40.313Z,1.65
2022-09-20T17:15:27.366Z,1.38
2022-09-20T17:18:12.364Z,3.63
2022-09-20T17:21:02.355Z,1.55
2022-09-20T17:23:50.994Z,1.73
2022-09-20T17:26:47.355Z,2.13
2022-09-20T17:29:34.399Z,1.63
2022-09-20T17:32:15.016Z,2.97
2022-09-20T17:35:02.323Z,3.22
2022-09-20T17:37:49.297Z,2.17
2022-09-20T17:40:36.365Z,1.77
2022-09-20T17:43:23.334Z,2.75
2022-09-20T17:46:12.310Z,1.80
2022-09-20T17:48:55.636Z,2.05
2022-09-20T17:51:44.297Z,2.10
2022-09-20T17:54:31.336Z,1.58
2022-09-20T17:57:11.690Z,1.60
2022-09-20T17:59:58.320Z,2.97
2022-09-20T18:02:39.334Z,1.42
2022-09-20T18:05:26.242Z,1.52
2022-09-20T18:08:13.290Z,3.42
2022-09-20T18:11:03.383Z,1.95
2022-09-20T18:13:50.283Z,2.20
2022-09-20T18:16:37.321Z,2.22
2022-09-20T18:19:17.819Z,1.80
2022-09-20T18:22:04.256Z,2.70
2022-09-20T18:24:44.585Z,1.85
2022-09-20T18:27:31.238Z,2.00
2022-09-20T18:30:18.240Z,2.35
2022-09-20T18:32:58.404Z,2.85
2022-09-20T18:35:48.269Z,3.10
2022-09-20T18:38:28.473Z,3.03
2022-09-20T18:41:15.225Z,3.03
2022-09-20T18:43:55.368Z,2.45
2022-09-20T18:46:44.361Z,3.45
2022-09-20T18:49:32.249Z,2.75
2022-09-20T18:52:13.163Z,2.08
2022-09-20T18:55:02.219Z,2.10
2022-09-20T18:57:49.250Z,3.78
2022-09-20T19:00:29.354Z,2.40
2022-09-20T19:03:26.349Z,2.35
2022-09-20T19:06:11.308Z,2.63
2022-09-20T19:09:21.203Z,2.22
2022-09-20T19:12:11.357Z,1.70
2022-09-20T19:15:10.227Z,2.30
2022-09-20T19:18:40.322Z,1.73
2022-09-20T19:21:58.182Z,2.08
2022-09-20T19:25:10.215Z,2.53
2022-09-20T19:28:04.196Z,1.88
2022-09-20T19:30:48.192Z,3.37
2022-09-20T19:33:36.196Z,2.58
2022-09-20T19:36:17.567Z,2.53
2022-09-20T19:39:21.191Z,2.22
2022-09-20T19:42:20.102Z,1.77
2022-09-20T19:45:17.232Z,3.90
2022-09-20T19:48:28.337Z,2.63
2022-09-20T19:51:19.158Z,1.70
2022-09-20T19:54:06.706Z,2.08
2022-09-20T19:56:55.203Z,2.63
2022-09-20T19:59:35.929Z,2.80
2022-09-20T20:02:25.168Z,2.20
2022-09-20T20:05:12.177Z,2.25
2022-09-20T20:08:24.420Z,2.55
2022-09-20T20:11:43.188Z,2.08
2022-09-20T20:14:27.470Z,2.47
2022-09-20T20:17:43.169Z,2.30
2022-09-20T20:20:49.162Z,2.80
2022-09-20T20:23:51.517Z,2.00
2022-09-20T20:26:39.096Z,2.05
2022-09-20T20:29:26.123Z,2.45
2022-09-20T20:32:06.194Z,2.33
2022-09-20T20:34:53.093Z,2.53
2022-09-20T20:37:33.246Z,2.72
2022-09-20T20:40:20.231Z,1.92
2022-09-20T20:43:10.120Z,2.10
2022-09-20T20:45:58.222Z,1.83
2022-09-20T20:48:45.139Z,2.50
2022-09-20T20:51:27.268Z,1.70
2022-09-20T20:54:14.109Z,1.70
2022-09-20T20:57:01.065Z,1.42
2022-09-20T20:59:48.098Z,2.22
2022-09-20T21:02:28.552Z,1.70
2022-09-20T21:05:15.083Z,1.95
2022-09-20T21:07:55.498Z,1.75
2022-09-20T21:10:42.062Z,1.25
2022-09-20T21:13:22.557Z,1.75
2022-09-20T21:16:16.081Z,1.08
2022-09-20T21:19:04.084Z,1.42
2022-09-20T21:21:46.196Z,1.52
2022-09-20T21:24:33.070Z,1.83
2022-09-20T21:27:27.001Z,1.92
2022-09-20T21:30:15.074Z,1.30
2022-09-20T21:32:56.980Z,1.63
2022-09-20T21:35:44.047Z,1.92
2022-09-20T21:38:31.052Z,1.95
2022-09-20T21:41:15.826Z,1.40
2022-09-20T21:44:07.068Z,1.63
2022-09-20T21:46:48.505Z,1.80
2022-09-20T21:49:35.330Z,1.70
2022-09-20T21:52:15.564Z,1.67
2022-09-20T21:55:02.039Z,1.75
2022-09-20T21:57:49.011Z,1.40
2022-09-20T22:00:36.026Z,1.50
2022-09-20T22:03:23.101Z,1.88
2022-09-20T22:06:02.985Z,1.40
2022-09-20T22:09:00.018Z,2.15
2022-09-20T22:11:50.038Z,1.80
2022-09-20T22:14:30.363Z,1.70
2022-09-20T22:17:16.992Z,2.28
2022-09-20T22:19:58.227Z,2.50
2022-09-20T22:22:44.983Z,2.03
2022-09-20T22:25:25.436Z,1.50
2022-09-20T22:28:11.948Z,2.50
2022-09-20T22:30:59.032Z,2.17
2022-09-20T22:33:45.998Z,2.25
2022-09-20T22:36:36.010Z,2.10
2022-09-20T22:39:24.989Z,2.03
2022-09-20T22:42:05.513Z,1.75
2022-09-20T22:44:51.961Z,1.70
2022-09-20T22:47:32.307Z,1.98
2022-09-20T22:50:18.917Z,1.92
2022-09-20T22:53:05.944Z,1.85
2022-09-20T22:55:52.913Z,1.85
2022-09-20T22:58:41.910Z,2.15
2022-09-20T23:01:35.042Z,2.15
2022-09-20T23:04:25.957Z,1.88
2022-09-20T23:07:06.130Z,1.58
2022-09-20T23:09:52.949Z,1.80
2022-09-20T23:12:33.023Z,1.75
2022-09-20T23:15:19.949Z,1.73
2022-09-20T23:18:06.941Z,1.90
2022-09-20T23:20:47.289Z,1.40
2022-09-20T23:23:33.883Z,1.77
2022-09-20T23:26:23.895Z,1.80
2022-09-20T23:29:13.978Z,2.38
2022-09-20T23:32:00.933Z,2.70
2022-09-20T23:34:47.924Z,2.70
2022-09-20T23:37:34.888Z,2.80
2022-09-20T23:40:22.948Z,2.60
2022-09-20T23:43:03.715Z,2.90
2022-09-20T23:45:50.949Z,2.45
2022-09-20T23:48:38.837Z,1.98
2022-09-20T23:51:28.911Z,2.20
2022-09-20T23:54:15.841Z,3.17
2022-09-20T23:57:02.844Z,2.70
2022-09-20T23:59:49.896Z,2.83
